Time;durP1;ratioP1;P1;durP2;ratioP2;P2;SDS_P1;SDS_P2;PMS_P1;PMS_P2;Temp;Humidity;BMP_temperature;BMP_pressure;BME280_temperature;BME280_humidity;BME280_pressure;Samples;Min_cycle;Max_cycle;Signal;HPM_P1;HPM_P2
2022/12/24 00:01:02;;;;;;;31.90;5.85;;;9.90;99.90;;;;;;5029258;28;20033;-86
2022/12/24 00:03:28;;;;;;;29.67;5.70;;;9.90;99.90;;;;;;5031743;28;20465;-87
2022/12/24 00:05:54;;;;;;;30.85;5.85;;;9.90;99.90;;;;;;5032649;28;20029;-86
2022/12/24 00:08:20;;;;;;;29.63;6.10;;;9.90;99.90;;;;;;5032231;28;20018;-88
2022/12/24 00:10:52;;;;;;;28.30;6.22;;;9.90;99.90;;;;;;5031364;28;20124;-87
2022/12/24 00:13:18;;;;;;;28.80;4.88;;;9.90;99.90;;;;;;5030126;28;20416;-85
2022/12/24 00:15:44;;;;;;;30.42;5.13;;;9.90;99.90;;;;;;5031164;28;20037;-86
2022/12/24 00:18:10;;;;;;;37.65;5.88;;;9.90;99.90;;;;;;5031395;28;20124;-86
2022/12/24 00:20:35;;;;;;;31.67;5.10;;;9.90;99.90;;;;;;5031022;28;20064;-87
2022/12/24 00:23:01;;;;;;;26.25;5.40;;;9.90;99.90;;;;;;5031025;28;20026;-86
2022/12/24 00:25:27;;;;;;;31.20;5.20;;;9.90;99.90;;;;;;5031304;28;20124;-87
2022/12/24 00:27:52;;;;;;;32.65;5.93;;;9.90;99.90;;;;;;5031274;28;20041;-89
2022/12/24 00:30:18;;;;;;;34.08;5.15;;;9.90;99.90;;;;;;5031084;28;20357;-87
2022/12/24 00:32:44;;;;;;;30.23;5.10;;;9.90;99.90;;;;;;5031115;28;20044;-85
2022/12/24 00:35:09;;;;;;;29.52;5.50;;;9.90;99.90;;;;;;5031260;28;20404;-86
2022/12/24 00:37:35;;;;;;;30.08;5.95;;;9.90;99.90;;;;;;5031358;28;20032;-86
2022/12/24 00:40:01;;;;;;;22.92;4.60;;;9.90;99.90;;;;;;5043082;28;20049;-86
2022/12/24 00:42:26;;;;;;;25.17;4.38;;;10.00;99.90;;;;;;5051204;28;20029;-85
2022/12/24 00:44:52;;;;;;;28.25;5.32;;;10.00;99.90;;;;;;5051071;28;20025;-85
2022/12/24 00:47:17;;;;;;;27.20;5.43;;;10.00;99.90;;;;;;5052491;28;20116;-85
2022/12/24 00:49:43;;;;;;;29.88;5.80;;;9.90;99.90;;;;;;5050898;28;20031;-85
2022/12/24 00:52:09;;;;;;;30.67;5.03;;;10.00;99.90;;;;;;5051000;28;20025;-86
2022/12/24 00:54:34;;;;;;;25.05;5.88;;;10.00;99.90;;;;;;5051443;28;20078;-85
2022/12/24 00:57:00;;;;;;;24.80;5.47;;;10.00;99.90;;;;;;5050732;28;20050;-86
2022/12/24 00:59:26;;;;;;;33.42;4.57;;;10.00;99.90;;;;;;5051454;28;20479;-87
2022/12/24 01:01:51;;;;;;;20.55;5.15;;;10.00;99.90;;;;;;5050846;28;20402;-87
2022/12/24 01:07:01;;;;;;;27.20;4.95;;;9.90;99.90;;;;;;5053020;28;20079;-86
2022/12/24 01:09:27;;;;;;;31.58;5.72;;;9.90;99.90;;;;;;5052360;28;20029;-86
2022/12/24 01:11:52;;;;;;;30.52;5.93;;;9.90;99.90;;;;;;5054968;28;20025;-87
2022/12/24 01:14:19;;;;;;;26.67;6.38;;;9.90;99.90;;;;;;5054673;28;20464;-87
2022/12/24 01:16:46;;;;;;;26.98;5.13;;;9.90;99.90;;;;;;5054604;28;20456;-85
2022/12/24 01:19:12;;;;;;;37.60;5.68;;;9.90;99.90;;;;;;5054753;28;20056;-86
2022/12/24 01:21:37;;;;;;;23.52;4.28;;;9.90;99.90;;;;;;5055820;28;20075;-86
2022/12/24 01:24:03;;;;;;;28.00;6.47;;;9.80;99.90;;;;;;5055943;28;20035;-85
2022/12/24 01:26:29;;;;;;;24.40;4.30;;;9.80;99.90;;;;;;5056095;28;20048;-86
2022/12/24 01:28:56;;;;;;;20.52;3.95;;;9.80;99.90;;;;;;5038147;28;20032;-86
2022/12/24 01:31:22;;;;;;;30.45;5.78;;;9.80;99.90;;;;;;5053169;28;20108;-84
2022/12/24 01:33:48;;;;;;;28.52;4.88;;;9.80;99.90;;;;;;5056177;28;20064;-86
2022/12/24 01:36:14;;;;;;;31.70;6.15;;;9.80;99.90;;;;;;5054366;28;20055;-86
2022/12/24 01:38:39;;;;;;;22.60;4.70;;;9.80;99.90;;;;;;5056113;28;20391;-85
2022/12/24 01:43:57;;;;;;;28.67;5.18;;;9.70;99.90;;;;;;5051371;28;20025;-85
2022/12/24 01:46:30;;;;;;;25.83;5.05;;;9.70;99.90;;;;;;5057194;28;20038;-85
2022/12/24 01:48:59;;;;;;;;;;;9.70;99.90;;;;;;5057452;28;20067;-86
2022/12/24 01:51:41;;;;;;;20.30;4.55;;;9.60;99.90;;;;;;5057482;28;20386;-84
2022/12/24 01:54:11;;;;;;;28.08;5.00;;;9.50;99.90;;;;;;5057381;28;20025;-86
2022/12/24 01:56:43;;;;;;;30.20;5.80;;;9.40;99.90;;;;;;5075361;28;20047;-86
2022/12/24 01:59:13;;;;;;;26.90;3.80;;;9.40;99.90;;;;;;5057248;28;20545;-86
2022/12/24 02:01:40;;;;;;;24.92;4.15;;;9.30;99.90;;;;;;5056739;28;20063;-85
2022/12/24 02:04:15;;;;;;;37.03;6.25;;;9.30;99.90;;;;;;5074607;28;20044;-85
2022/12/24 02:06:40;;;;;;;36.78;6.18;;;9.30;99.90;;;;;;5056990;28;20090;-87
2022/12/24 02:09:06;;;;;;;34.50;5.28;;;9.20;99.90;;;;;;5056597;28;20036;-85
2022/12/24 02:11:36;;;;;;;26.13;4.25;;;9.20;99.90;;;;;;5074629;28;20059;-85
2022/12/24 02:14:02;;;;;;;23.75;5.07;;;9.10;99.90;;;;;;5056584;28;20067;-85
2022/12/24 02:16:37;;;;;;;28.85;4.57;;;9.10;99.90;;;;;;5055759;28;20036;-86
2022/12/24 02:19:44;;;;;;;21.48;4.82;;;9.00;99.90;;;;;;5041163;28;20036;-85
2022/12/24 02:22:40;;;;;;;25.95;4.60;;;9.00;99.90;;;;;;5055483;28;20036;-85
2022/12/24 02:25:29;;;;;;;33.00;5.03;;;9.00;99.90;;;;;;5039094;28;20033;-84
2022/12/24 02:28:01;;;;;;;33.10;6.72;;;9.00;99.90;;;;;;5057272;28;20028;-84
2022/12/24 02:30:33;;;;;;;30.50;4.63;;;8.90;99.90;;;;;;5057241;28;20051;-83
2022/12/24 02:33:36;;;;;;;27.92;5.65;;;8.90;99.90;;;;;;5075337;28;20028;-83
2022/12/24 02:36:29;;;;;;;22.08;3.88;;;8.90;99.90;;;;;;5056667;28;20044;-83
2022/12/24 02:39:03;;;;;;;24.48;3.90;;;8.80;99.90;;;;;;5074825;28;20071;-83
2022/12/24 02:44:27;;;;;;;30.48;4.93;;;8.80;99.90;;;;;;5074891;28;20448;-85
2022/12/24 02:46:55;;;;;;;24.92;4.55;;;8.70;99.90;;;;;;5074957;28;20040;-84
2022/12/24 02:49:21;;;;;;;22.27;4.32;;;8.70;99.90;;;;;;5056713;28;20029;-84
2022/12/24 02:51:46;;;;;;;21.65;4.65;;;8.70;99.90;;;;;;5074778;28;20478;-84
2022/12/24 02:54:14;;;;;;;15.73;3.40;;;8.70;99.90;;;;;;5056862;28;20074;-84
2022/12/24 02:57:07;;;;;;;15.25;3.50;;;8.70;99.90;;;;;;5056633;28;20067;-85
2022/12/24 03:00:13;;;;;;;31.08;4.80;;;8.70;99.90;;;;;;5057025;28;20020;-85
2022/12/24 03:02:57;;;;;;;25.75;4.40;;;8.70;99.90;;;;;;5052566;28;20112;-85
2022/12/24 03:05:34;;;;;;;;;;;8.60;99.90;;;;;;5057006;28;20031;-84
2022/12/24 03:08:12;;;;;;;23.33;4.00;;;8.60;99.90;;;;;;5056557;28;20340;-84
2022/12/24 03:11:00;;;;;;;26.33;4.13;;;8.60;99.90;;;;;;5056312;28;20033;-85
2022/12/24 03:13:26;;;;;;;25.27;4.32;;;8.60;99.90;;;;;;5056273;28;20044;-85
2022/12/24 03:15:53;;;;;;;28.25;4.85;;;8.60;99.90;;;;;;5073889;28;20487;-84
2022/12/24 03:18:23;;;;;;;27.48;5.88;;;8.50;99.90;;;;;;5056275;28;20029;-84
2022/12/24 03:21:25;;;;;;;28.88;5.78;;;8.60;99.90;;;;;;5056273;28;20048;-84
2022/12/24 03:23:51;;;;;;;21.08;3.63;;;8.60;99.90;;;;;;5055298;28;20029;-85
2022/12/24 03:26:18;;;;;;;19.00;3.40;;;8.50;99.90;;;;;;5055609;28;20036;-84
2022/12/24 03:28:45;;;;;;;19.02;3.80;;;8.50;99.90;;;;;;5056082;28;20507;-84
2022/12/24 03:31:11;;;;;;;11.82;2.88;;;8.50;99.90;;;;;;5055861;28;20033;-84
2022/12/24 03:33:37;;;;;;;18.33;4.15;;;8.50;99.90;;;;;;5055157;28;20447;-84
2022/12/24 03:36:04;;;;;;;21.65;4.40;;;8.40;99.90;;;;;;5055675;28;20053;-84
2022/12/24 03:38:30;;;;;;;21.35;4.60;;;8.40;99.90;;;;;;5055541;28;20059;-84
2022/12/24 03:40:55;;;;;;;24.67;3.50;;;8.50;99.90;;;;;;5073957;28;20068;-84
2022/12/24 03:43:27;;;;;;;19.20;3.38;;;8.50;99.90;;;;;;5055829;28;20055;-84
2022/12/24 03:45:53;;;;;;;26.73;4.63;;;8.60;99.90;;;;;;5055892;28;20036;-84
2022/12/24 03:48:19;;;;;;;26.02;4.43;;;8.60;99.90;;;;;;5055670;28;20029;-84
2022/12/24 03:50:45;;;;;;;28.98;5.60;;;8.60;99.90;;;;;;5055215;28;20062;-84
2022/12/24 03:53:10;;;;;;;19.55;3.72;;;8.70;99.90;;;;;;5055799;28;20024;-85
2022/12/24 03:55:38;;;;;;;22.88;4.28;;;8.80;99.90;;;;;;5054884;28;20044;-84
2022/12/24 03:58:04;;;;;;;30.45;5.10;;;8.80;99.90;;;;;;5073664;28;20031;-84
2022/12/24 04:00:29;;;;;;;21.48;4.60;;;8.90;99.90;;;;;;5054920;28;20146;-84
2022/12/24 04:02:55;;;;;;;28.27;4.93;;;8.90;99.90;;;;;;5073111;28;20040;-85
2022/12/24 04:05:24;;;;;;;21.15;4.38;;;9.00;99.90;;;;;;5073840;28;20062;-84
2022/12/24 04:07:49;;;;;;;28.55;5.20;;;9.00;99.90;;;;;;5073376;28;20092;-84
2022/12/24 04:10:16;;;;;;;22.08;5.05;;;9.10;99.90;;;;;;5054990;28;20032;-84
2022/12/24 04:12:41;;;;;;;30.45;6.28;;;9.10;99.90;;;;;;5055409;28;20032;-84
2022/12/24 04:15:08;;;;;;;23.77;5.13;;;9.20;99.90;;;;;;5055310;28;20478;-84
2022/12/24 04:17:34;;;;;;;21.63;4.95;;;9.30;99.90;;;;;;5054834;28;20056;-84
2022/12/24 04:19:59;;;;;;;29.90;5.53;;;9.30;99.90;;;;;;5054638;28;20029;-83
2022/12/24 04:22:25;;;;;;;21.27;5.40;;;9.40;99.90;;;;;;5073415;28;20036;-84
2022/12/24 04:24:51;;;;;;;29.48;6.97;;;9.40;99.90;;;;;;5055029;28;20114;-84
2022/12/24 04:27:16;;;;;;;23.00;6.22;;;9.40;99.90;;;;;;5055433;28;20024;-85
2022/12/24 04:29:42;;;;;;;32.38;6.35;;;9.50;99.90;;;;;;5073014;28;20029;-83
2022/12/24 04:32:09;;;;;;;30.00;7.40;;;9.50;99.90;;;;;;5055381;28;20511;-84
2022/12/24 04:34:35;;;;;;;31.30;6.35;;;9.50;99.90;;;;;;5073225;28;20021;-83
2022/12/24 04:37:01;;;;;;;34.58;7.10;;;9.60;99.90;;;;;;5055281;28;20051;-84
2022/12/24 04:39:27;;;;;;;38.78;8.32;;;9.60;99.90;;;;;;5054985;28;20520;-84
2022/12/24 04:41:53;;;;;;;28.88;7.05;;;9.70;99.90;;;;;;5072782;28;20020;-85
2022/12/24 04:44:18;;;;;;;25.83;5.85;;;9.70;99.90;;;;;;5056056;28;20116;-84
2022/12/24 04:46:44;;;;;;;31.13;7.03;;;9.70;99.90;;;;;;5059621;28;20028;-84
2022/12/24 04:49:10;;;;;;;33.03;8.07;;;9.80;99.90;;;;;;5059097;28;20020;-85
2022/12/24 04:51:36;;;;;;;26.05;6.65;;;9.80;99.90;;;;;;5058946;28;20024;-85
2022/12/24 04:54:01;;;;;;;30.98;7.57;;;9.70;99.90;;;;;;5059065;28;20697;-83
2022/12/24 04:56:30;;;;;;;31.77;6.57;;;9.70;99.90;;;;;;5058541;28;20032;-83
2022/12/24 04:58:57;;;;;;;24.55;7.28;;;9.70;99.90;;;;;;5058770;28;20024;-84
2022/12/24 05:01:25;;;;;;;30.27;7.07;;;9.70;99.90;;;;;;5058799;28;20029;-85
2022/12/24 05:03:52;;;;;;;24.48;6.15;;;9.70;99.90;;;;;;5058779;28;20111;-84
2022/12/24 05:06:20;;;;;;;34.30;7.47;;;9.60;99.90;;;;;;5058644;28;20055;-84
2022/12/24 05:08:46;;;;;;;29.33;7.50;;;9.60;99.90;;;;;;5076400;28;20036;-84
2022/12/24 05:11:14;;;;;;;28.27;6.35;;;9.60;99.90;;;;;;5058591;28;20058;-85
2022/12/24 05:13:46;;;;;;;29.17;6.32;;;9.70;99.90;;;;;;5076657;28;20039;-84
2022/12/24 05:16:12;;;;;;;29.60;6.07;;;9.70;99.90;;;;;;5058590;28;20074;-85
2022/12/24 05:18:39;;;;;;;27.52;5.93;;;9.70;99.90;;;;;;5058188;28;20021;-83
2022/12/24 05:21:24;;;;;;;38.97;8.02;;;9.70;99.90;;;;;;5058458;28;20051;-84
2022/12/24 05:26:45;;;;;;;31.67;6.03;;;9.70;99.90;;;;;;5076708;28;20082;-84
2022/12/24 05:29:13;;;;;;;33.28;6.07;;;9.70;99.90;;;;;;5075962;28;20029;-86
2022/12/24 05:31:43;;;;;;;24.77;5.55;;;9.80;99.90;;;;;;5058612;28;20111;-83
2022/12/24 05:34:10;;;;;;;28.30;5.82;;;9.80;99.90;;;;;;5058663;28;20029;-85
2022/12/24 05:36:36;;;;;;;28.70;7.05;;;9.80;99.90;;;;;;5076356;28;20037;-84
2022/12/24 05:39:02;;;;;;;28.98;5.57;;;9.80;99.90;;;;;;5057933;28;20090;-84
2022/12/24 05:41:28;;;;;;;27.88;5.53;;;9.80;99.90;;;;;;5058211;28;20090;-84
2022/12/24 05:43:54;;;;;;;32.05;5.68;;;9.80;99.90;;;;;;5041644;28;20032;-84
2022/12/24 05:46:21;;;;;;;30.30;6.65;;;9.80;99.90;;;;;;5075695;28;20088;-84
2022/12/24 05:48:49;;;;;;;30.98;6.47;;;9.90;99.90;;;;;;5058143;28;20299;-84
2022/12/24 05:51:18;;;;;;;31.23;8.20;;;9.80;99.90;;;;;;5058023;28;20032;-84
2022/12/24 05:53:48;;;;;;;28.52;5.63;;;9.90;99.90;;;;;;5076003;28;20338;-84
2022/12/24 05:56:19;;;;;;;26.08;6.40;;;9.90;99.90;;;;;;5056922;28;20032;-84
2022/12/24 05:58:45;;;;;;;30.38;6.72;;;9.90;99.90;;;;;;5075653;28;20057;-83
2022/12/24 06:01:12;;;;;;;33.30;6.75;;;9.90;99.90;;;;;;5076005;28;20032;-84
2022/12/24 06:03:38;;;;;;;29.30;6.88;;;10.00;99.90;;;;;;5075722;28;20028;-84
2022/12/24 06:06:19;;;;;;;29.92;5.97;;;10.00;99.90;;;;;;5075406;28;20353;-83
2022/12/24 06:08:46;;;;;;;24.67;6.50;;;10.00;99.90;;;;;;5057726;28;20056;-83
2022/12/24 06:11:14;;;;;;;30.52;6.57;;;10.00;99.90;;;;;;5075636;28;20025;-84
2022/12/24 06:13:41;;;;;;;26.83;6.43;;;10.00;99.90;;;;;;5057520;28;20028;-84
2022/12/24 06:16:10;;;;;;;29.52;6.47;;;10.00;99.90;;;;;;5075570;28;20043;-83
2022/12/24 06:18:36;;;;;;;29.92;6.68;;;10.10;99.90;;;;;;5057435;28;20037;-84
2022/12/24 06:21:03;;;;;;;31.67;6.40;;;10.10;99.90;;;;;;5057430;28;20052;-84
2022/12/24 06:23:30;;;;;;;27.95;6.50;;;10.10;99.90;;;;;;5057392;28;20051;-84
2022/12/24 06:25:59;;;;;;;21.90;5.65;;;10.10;99.90;;;;;;5056954;28;20063;-84
2022/12/24 06:28:28;;;;;;;34.60;7.13;;;10.10;99.90;;;;;;5058237;28;20442;-84
2022/12/24 06:30:54;;;;;;;34.53;7.82;;;10.10;99.90;;;;;;5057205;28;20025;-84
2022/12/24 06:33:20;;;;;;;28.08;6.45;;;10.10;99.90;;;;;;5057163;28;20349;-84
2022/12/24 06:35:46;;;;;;;25.00;6.45;;;10.10;99.90;;;;;;5056207;28;20033;-84
2022/12/24 06:38:12;;;;;;;32.88;7.68;;;10.20;99.90;;;;;;5057042;28;20464;-84
2022/12/24 06:40:42;;;;;;;29.00;6.90;;;10.10;99.90;;;;;;5056643;28;20044;-83
2022/12/24 06:43:08;;;;;;;35.42;7.93;;;10.10;99.90;;;;;;5056898;28;20028;-84
2022/12/24 06:45:34;;;;;;;30.83;7.05;;;10.10;99.90;;;;;;5056696;28;20032;-84
2022/12/24 06:48:00;;;;;;;28.77;7.18;;;10.10;99.90;;;;;;5056931;28;20024;-84
2022/12/24 06:50:26;;;;;;;37.05;9.18;;;10.10;99.90;;;;;;5056794;28;20032;-85
2022/12/24 06:52:52;;;;;;;28.08;7.13;;;10.10;99.90;;;;;;5056847;28;20028;-84
2022/12/24 06:55:25;;;;;;;29.77;7.53;;;10.10;99.90;;;;;;5074560;28;20086;-84
2022/12/24 06:57:50;;;;;;;27.80;7.40;;;10.20;99.90;;;;;;5056899;28;20032;-84
2022/12/24 07:00:16;;;;;;;34.83;8.68;;;10.10;99.90;;;;;;5073694;28;20552;-84
2022/12/24 07:02:44;;;;;;;32.13;8.30;;;10.10;99.90;;;;;;5056764;28;20035;-83
2022/12/24 07:05:16;;;;;;;27.15;7.05;;;10.20;99.90;;;;;;5056415;28;20082;-84
2022/12/24 07:07:43;;;;;;;29.65;7.25;;;10.10;99.90;;;;;;5074396;28;20034;-84
2022/12/24 07:10:15;;;;;;;27.40;6.97;;;10.20;99.90;;;;;;5056278;28;20040;-84
2022/12/24 07:12:43;;;;;;;30.17;8.75;;;10.20;99.90;;;;;;5056412;28;20032;-84
2022/12/24 07:15:09;;;;;;;27.23;7.55;;;10.20;99.90;;;;;;5055829;28;20032;-84
2022/12/24 07:17:35;;;;;;;38.63;8.32;;;10.20;99.90;;;;;;5074180;28;20116;-83
2022/12/24 07:20:04;;;;;;;34.72;8.70;;;10.20;99.90;;;;;;5056050;28;20440;-83
2022/12/24 07:22:29;;;;;;;46.10;9.88;;;10.20;99.90;;;;;;5074215;28;20107;-83
2022/12/24 07:24:59;;;;;;;24.13;6.97;;;10.20;99.90;;;;;;5055764;28;20515;-84
2022/12/24 07:27:25;;;;;;;26.85;6.97;;;10.20;99.90;;;;;;5055217;28;20033;-84
2022/12/24 07:29:51;;;;;;;31.92;7.18;;;10.20;99.90;;;;;;5056214;28;20115;-83
2022/12/24 07:32:19;;;;;;;24.92;6.95;;;10.20;99.90;;;;;;5055453;28;20032;-84
2022/12/24 07:34:46;;;;;;;28.65;6.00;;;10.20;99.90;;;;;;5055943;28;20029;-84
2022/12/24 07:37:11;;;;;;;35.45;7.47;;;10.20;99.90;;;;;;5055711;28;20036;-84
2022/12/24 07:39:37;;;;;;;29.45;8.05;;;10.20;99.90;;;;;;5073298;28;20094;-83
2022/12/24 07:42:05;;;;;;;24.23;7.03;;;10.20;99.90;;;;;;5073001;28;20032;-84
2022/12/24 07:44:31;;;;;;;27.02;6.47;;;10.20;99.90;;;;;;5055740;28;20025;-83
2022/12/24 07:46:56;;;;;;;24.02;5.68;;;10.20;99.90;;;;;;5050226;28;20033;-83
2022/12/24 07:49:25;;;;;;;25.08;7.15;;;10.20;99.90;;;;;;5054722;28;20031;-82
2022/12/24 07:51:50;;;;;;;29.50;6.28;;;10.20;99.90;;;;;;5055146;28;20023;-83
2022/12/24 07:54:16;;;;;;;25.60;5.75;;;10.20;99.90;;;;;;5054902;28;20371;-84
2022/12/24 07:56:42;;;;;;;25.38;6.10;;;10.20;99.90;;;;;;5055050;28;20122;-86
2022/12/24 07:59:12;;;;;;;24.27;5.65;;;10.20;99.90;;;;;;5072497;28;20089;-84
2022/12/24 08:01:39;;;;;;;25.55;6.57;;;10.20;99.90;;;;;;5041898;28;20048;-85
2022/12/24 08:04:04;;;;;;;25.48;6.40;;;10.20;99.90;;;;;;5072823;28;20024;-86
2022/12/24 08:06:36;;;;;;;22.52;5.88;;;10.20;99.90;;;;;;5054521;28;20107;-85
2022/12/24 08:09:01;;;;;;;25.95;6.18;;;10.20;99.90;;;;;;5055429;28;20107;-85
2022/12/24 08:11:27;;;;;;;20.48;5.57;;;10.20;99.90;;;;;;5055147;28;20120;-84
2022/12/24 08:13:53;;;;;;;28.95;6.85;;;10.30;99.90;;;;;;5055050;28;20074;-84
2022/12/24 08:16:19;;;;;;;16.23;5.07;;;10.30;99.90;;;;;;5054720;28;20379;-86
2022/12/24 08:18:46;;;;;;;25.75;6.40;;;10.30;99.90;;;;;;5054591;28;20036;-85
2022/12/24 08:21:11;;;;;;;20.55;5.07;;;10.30;99.90;;;;;;5072743;28;20037;-84
2022/12/24 08:23:37;;;;;;;22.60;5.30;;;10.30;99.90;;;;;;5055067;28;20390;-84
2022/12/24 08:26:07;;;;;;;31.17;5.95;;;10.30;99.90;;;;;;5054407;28;20081;-85
2022/12/24 08:28:34;;;;;;;24.50;5.47;;;10.30;99.90;;;;;;5054909;28;20025;-84
2022/12/24 08:31:00;;;;;;;21.05;5.70;;;10.20;99.90;;;;;;5049454;28;20032;-86
2022/12/24 08:33:26;;;;;;;26.50;6.40;;;10.20;99.90;;;;;;5054355;28;20044;-87
2022/12/24 08:35:53;;;;;;;26.17;6.60;;;10.20;99.90;;;;;;5072617;28;20033;-85
2022/12/24 08:38:20;;;;;;;31.17;7.40;;;10.20;99.90;;;;;;5055168;28;20471;-84
2022/12/24 08:40:47;;;;;;;28.60;6.50;;;10.20;99.90;;;;;;5054540;28;20044;-84
2022/12/24 08:43:13;;;;;;;35.95;8.38;;;10.30;99.90;;;;;;5055075;28;20028;-84
2022/12/24 08:45:39;;;;;;;29.27;6.53;;;10.30;99.90;;;;;;5072359;28;20401;-85
2022/12/24 08:48:06;;;;;;;27.38;7.28;;;10.30;99.90;;;;;;5053456;28;20094;-85
2022/12/24 08:50:32;;;;;;;24.98;5.70;;;10.30;99.90;;;;;;5064547;28;20423;-85
2022/12/24 08:52:59;;;;;;;24.02;5.38;;;10.30;99.90;;;;;;5072408;28;20028;-85
2022/12/24 08:55:24;;;;;;;23.20;5.30;;;10.30;99.90;;;;;;5072837;28;20028;-85
2022/12/24 08:57:51;;;;;;;31.13;7.10;;;10.30;99.90;;;;;;5072819;28;20423;-85
2022/12/24 09:00:18;;;;;;;32.25;7.45;;;10.30;99.90;;;;;;5054399;28;20033;-84
2022/12/24 09:02:43;;;;;;;32.63;7.15;;;10.40;99.90;;;;;;5054608;28;20028;-84
2022/12/24 09:05:09;;;;;;;26.75;5.70;;;10.40;99.90;;;;;;5054559;28;20119;-85
2022/12/24 09:07:35;;;;;;;31.25;7.25;;;10.40;99.90;;;;;;5054421;28;20056;-84
2022/12/24 09:10:02;;;;;;;31.58;7.45;;;10.50;99.90;;;;;;5054471;28;20367;-85
2022/12/24 09:12:28;;;;;;;29.27;6.70;;;10.50;99.90;;;;;;5054265;28;20076;-86
2022/12/24 09:14:54;;;;;;;31.92;7.63;;;10.60;99.90;;;;;;5054449;28;20029;-84
2022/12/24 09:17:20;;;;;;;33.30;8.70;;;10.70;99.90;;;;;;5053818;28;20037;-88
2022/12/24 09:19:46;;;;;;;28.02;6.82;;;10.90;99.90;;;;;;5072022;28;20082;-84
2022/12/24 09:22:13;;;;;;;29.05;6.90;;;11.10;99.90;;;;;;5054624;28;20033;-84
2022/12/24 09:24:39;;;;;;;25.02;6.70;;;11.20;99.90;;;;;;5072217;28;20039;-85
2022/12/24 09:27:04;;;;;;;32.03;7.55;;;11.30;99.90;;;;;;5054570;28;20048;-85
2022/12/24 09:29:31;;;;;;;35.70;8.00;;;11.50;99.90;;;;;;5054413;28;20051;-84
2022/12/24 09:31:57;;;;;;;29.02;8.13;;;11.60;99.90;;;;;;5055053;28;20027;-85
2022/12/24 09:34:24;;;;;;;25.17;7.25;;;11.40;99.90;;;;;;5058005;28;20033;-84
2022/12/24 09:36:53;;;;;;;29.00;7.75;;;11.30;99.90;;;;;;5076255;28;20029;-84
2022/12/24 09:39:19;;;;;;;27.20;6.95;;;11.30;99.90;;;;;;5057555;28;20048;-85
2022/12/24 09:41:57;;;;;;;26.67;7.32;;;11.30;99.90;;;;;;5057657;28;20028;-86
2022/12/24 09:44:50;;;;;;;30.48;8.02;;;11.30;99.90;;;;;;5057568;28;20117;-84
2022/12/24 09:47:16;;;;;;;27.48;7.35;;;11.30;99.90;;;;;;5057860;28;20476;-85
2022/12/24 09:49:47;;;;;;;28.80;7.30;;;11.20;99.90;;;;;;5058059;28;20032;-85
2022/12/24 09:52:27;;;;;;;23.38;6.72;;;11.20;99.90;;;;;;5057627;28;20035;-84
2022/12/24 09:55:21;;;;;;;32.55;8.63;;;11.10;99.90;;;;;;5057935;28;20082;-84
2022/12/24 09:57:50;;;;;;;30.10;7.47;;;11.00;99.90;;;;;;5056502;28;20060;-84
2022/12/24 10:00:31;;;;;;;32.13;8.25;;;11.00;99.90;;;;;;5075701;28;20029;-84
2022/12/24 10:02:57;;;;;;;28.80;6.75;;;11.00;99.90;;;;;;5057401;28;20349;-85
2022/12/24 10:05:55;;;;;;;31.65;8.55;;;11.00;99.90;;;;;;5057261;28;20028;-85
2022/12/24 10:08:52;;;;;;;27.70;7.47;;;11.10;99.90;;;;;;5075449;28;20032;-84
2022/12/24 10:11:42;;;;;;;29.08;7.82;;;11.40;99.90;;;;;;5075435;28;20108;-83
2022/12/24 10:14:20;;;;;;;25.38;7.30;;;11.60;99.90;;;;;;5057024;28;20028;-84
2022/12/24 10:17:23;;;;;;;26.67;7.05;;;11.90;99.90;;;;;;5053947;28;20048;-84
2022/12/24 10:20:04;;;;;;;31.15;7.28;;;12.10;99.90;;;;;;5055637;28;20120;-83
2022/12/24 10:23:12;;;;;;;25.33;7.43;;;11.90;99.90;;;;;;5056670;28;20033;-84
2022/12/24 10:25:44;;;;;;;26.98;6.80;;;11.80;99.90;;;;;;5046167;28;20028;-85
2022/12/24 10:28:23;;;;;;;21.43;6.93;;;11.80;99.90;;;;;;5056182;28;20036;-85
2022/12/24 10:30:56;;;;;;;30.58;6.30;;;12.10;99.90;;;;;;5060439;28;20035;-84
2022/12/24 10:33:32;;;;;;;25.30;6.32;;;12.30;99.90;;;;;;5054315;28;20032;-84
2022/12/24 10:35:59;;;;;;;25.40;7.03;;;12.40;99.90;;;;;;5053829;28;20035;-84
2022/12/24 10:38:25;;;;;;;23.23;6.60;;;12.30;99.90;;;;;;5033218;28;20025;-86
2022/12/24 10:40:54;;;;;;;22.98;5.80;;;12.20;99.90;;;;;;5073548;28;20060;-84
2022/12/24 10:43:22;;;;;;;31.20;8.00;;;12.40;99.90;;;;;;5053211;28;20375;-85
2022/12/24 10:46:02;;;;;;;26.88;6.57;;;12.90;99.90;;;;;;5054789;28;20032;-84
2022/12/24 10:48:42;;;;;;;30.63;7.32;;;13.30;99.90;;;;;;5055424;28;20460;-84
2022/12/24 10:51:20;;;;;;;21.88;6.07;;;13.60;99.90;;;;;;5055563;28;20055;-84
2022/12/24 10:53:51;;;;;;;23.70;6.15;;;14.10;99.90;;;;;;5073542;28;20037;-84
2022/12/24 10:56:20;;;;;;;25.50;6.40;;;14.60;99.90;;;;;;5054638;28;20032;-84
2022/12/24 10:58:51;;;;;;;28.45;6.63;;;14.70;99.90;;;;;;5055442;28;20028;-83
2022/12/24 11:01:17;;;;;;;27.08;7.15;;;14.90;99.90;;;;;;5056509;28;20031;-83
2022/12/24 11:03:43;;;;;;;25.35;6.07;;;15.10;99.90;;;;;;5054971;28;20376;-83
2022/12/24 11:06:21;;;;;;;23.05;6.03;;;15.00;99.90;;;;;;5054988;28;20054;-86
2022/12/24 11:08:46;;;;;;;25.02;6.15;;;14.60;99.90;;;;;;5055645;28;20048;-86
2022/12/24 11:11:16;;;;;;;22.35;5.47;;;14.10;99.90;;;;;;5055954;28;20082;-85
2022/12/24 11:13:54;;;;;;;22.30;6.28;;;13.70;99.90;;;;;;5056048;28;20078;-85
2022/12/24 11:16:31;;;;;;;20.88;5.38;;;13.60;99.90;;;;;;5055526;28;20465;-85
2022/12/24 11:19:02;;;;;;;22.40;5.18;;;13.40;99.90;;;;;;5055924;28;20028;-85
2022/12/24 11:21:31;;;;;;;20.30;4.38;;;13.30;99.90;;;;;;5073327;28;20033;-85
2022/12/24 11:24:12;;;;;;;20.27;4.88;;;13.10;99.90;;;;;;5055538;28;20024;-85
2022/12/24 11:26:42;;;;;;;22.83;5.57;;;12.90;99.90;;;;;;5055370;28;20131;-85
2022/12/24 11:29:13;;;;;;;18.90;4.10;;;12.80;99.90;;;;;;5073412;28;20120;-84
2022/12/24 11:31:41;;;;;;;22.88;5.05;;;12.70;99.90;;;;;;5056045;28;20078;-85
2022/12/24 11:34:41;;;;;;;18.35;4.80;;;12.80;99.90;;;;;;5055085;28;20059;-84
2022/12/24 11:37:22;;;;;;;15.23;4.07;;;12.90;99.90;;;;;;5055162;28;20041;-85
2022/12/24 11:39:53;;;;;;;17.55;4.18;;;12.80;99.90;;;;;;5052695;28;20051;-87
2022/12/24 11:42:31;;;;;;;19.40;4.88;;;12.50;99.90;;;;;;5059750;28;20152;-86
2022/12/24 11:45:03;;;;;;;22.20;4.35;;;12.30;99.90;;;;;;5050279;28;20132;-86
2022/12/24 11:47:43;;;;;;;19.75;4.55;;;12.30;99.90;;;;;;5046465;28;20040;-86
2022/12/24 11:50:28;;;;;;;17.45;4.75;;;12.20;99.90;;;;;;5051500;28;20032;-87
2022/12/24 11:53:02;;;;;;;20.35;5.00;;;12.20;99.90;;;;;;5068345;28;20083;-85
2022/12/24 11:55:51;;;;;;;17.15;4.35;;;12.20;99.90;;;;;;5051344;28;20032;-84
2022/12/24 11:58:39;;;;;;;19.25;4.40;;;12.20;99.90;;;;;;5066701;28;20040;-85
2022/12/24 12:01:17;;;;;;;20.02;4.85;;;12.20;99.90;;;;;;5068205;28;20033;-86
2022/12/24 12:03:51;;;;;;;16.65;4.85;;;12.10;99.90;;;;;;5053057;28;20039;-85
2022/12/24 12:06:40;;;;;;;16.70;3.78;;;12.00;99.90;;;;;;5052211;28;20105;-85
2022/12/24 12:09:13;;;;;;;19.60;4.10;;;12.00;99.90;;;;;;5038689;28;20059;-86
2022/12/24 12:11:48;;;;;;;19.92;4.32;;;12.00;99.90;;;;;;5048524;28;20048;-87
2022/12/24 12:14:31;;;;;;;18.27;4.20;;;12.00;99.90;;;;;;5047783;28;20503;-85
2022/12/24 12:17:25;;;;;;;19.85;4.03;;;11.90;99.90;;;;;;5066806;28;20064;-85
2022/12/24 12:20:03;;;;;;;17.35;4.20;;;12.00;99.90;;;;;;5050784;28;20029;-85
2022/12/24 12:22:44;;;;;;;14.70;3.53;;;11.90;99.90;;;;;;5041501;28;20029;-84
2022/12/24 12:25:25;;;;;;;13.80;2.97;;;11.80;99.90;;;;;;5051673;28;20036;-84
2022/12/24 12:27:55;;;;;;;16.58;4.30;;;11.80;99.90;;;;;;5050938;28;20036;-83
2022/12/24 12:30:23;;;;;;;19.85;3.95;;;11.80;99.90;;;;;;5068902;28;20055;-86
2022/12/24 12:32:51;;;;;;;21.73;4.72;;;11.80;99.90;;;;;;5051116;28;20047;-84
2022/12/24 12:35:29;;;;;;;18.00;5.05;;;11.80;99.90;;;;;;5069254;28;20116;-84
2022/12/24 12:38:04;;;;;;;16.63;3.97;;;11.70;99.90;;;;;;5051385;28;20040;-84
2022/12/24 12:40:56;;;;;;;15.68;3.80;;;11.60;99.90;;;;;;5047640;28;20048;-86
2022/12/24 12:44:18;;;;;;;18.13;4.22;;;11.60;99.90;;;;;;5050188;28;20032;-85
2022/12/24 12:46:52;;;;;;;18.55;5.13;;;11.60;99.90;;;;;;5068328;28;20060;-83
2022/12/24 12:49:47;;;;;;;16.15;3.70;;;11.50;99.90;;;;;;5052268;28;20033;-83
2022/12/24 12:52:18;;;;;;;13.25;3.35;;;11.60;99.90;;;;;;5042413;28;20033;-84
2022/12/24 12:55:16;;;;;;;17.15;3.50;;;11.70;99.90;;;;;;5050139;28;20032;-84
2022/12/24 12:57:44;;;;;;;20.65;4.13;;;11.70;99.90;;;;;;5004998;28;20044;-84
2022/12/24 13:00:16;;;;;;;18.60;4.45;;;11.70;99.90;;;;;;5048855;28;20025;-84
2022/12/24 13:03:00;;;;;;;17.25;3.25;;;11.70;99.90;;;;;;5050787;28;20046;-85
2022/12/24 13:05:52;;;;;;;12.02;3.70;;;11.70;99.90;;;;;;5051266;28;20056;-84
2022/12/24 13:08:40;;;;;;;15.27;3.10;;;11.80;99.90;;;;;;5044759;28;20032;-85
2022/12/24 13:11:30;;;;;;;12.10;2.67;;;11.80;99.90;;;;;;5071012;28;20448;-86